Main page
METAR-TAF:

METAR-TAF

Airports :

Srinagar International Airport

Srinagar, India

latitude: 33-59-14N, longitude: 074-46-27E, elevation: 1655 m

METAR: missing

Time: 04:20 (22:50 UTC)

Forecast

The report was made 7 hours and 20 minutes ago, at 15:30 UTC
Forecast valid from 05 at 18 UTC to 06 at 06 UTC
Wind 5 kt from the West
Visibility: 6000 m
Scattered clouds at a height of 1500 ft
Broken clouds at a height of 10000 ft
Temporary
from 06 at 00 UTC to 06 at 02 UTC
Scattered clouds at a height of 1500 ft
Few clouds at a height of 3000 ft, Towering cumulus.
Broken clouds at a height of 10000 ft
light rain

TAF: VISR 051530Z 0518/0606 27005KT 6000 SCT015 BKN100 TEMPO 0600/0602 -RA SCT015 FEW030TCU BKN100

Weather observations and forecasts of more than 4000 airports (METAR and TAF reports).

The available stations are represented by yellow and red dots on the map.

Hover mouse over dot to see the name of the station.

Then click to see weather observations and forecasts.

To change the map : click on the green buttons with a black cross to zoom in, on the green button with a dash to zoom out, or on the green arrows for adjacent maps.


METAR-TAF: